sensor_id;sensor_type;location;lat;lon;timestamp;P1;durP1;ratioP1;P2;durP2;ratioP2
14019;SDS011;7085;51.428;6.796;2022-10-13T04:14:11;14.53;;;9.17;;
14019;SDS011;7085;51.428;6.796;2022-10-13T04:16:38;14.60;;;10.27;;
14019;SDS011;7085;51.428;6.796;2022-10-13T04:19:05;14.35;;;10.00;;
14019;SDS011;7085;51.428;6.796;2022-10-13T04:21:33;15.05;;;10.45;;
14019;SDS011;7085;51.428;6.796;2022-10-13T04:24:01;11.68;;;9.25;;
14019;SDS011;7085;51.428;6.796;2022-10-13T04:26:29;16.73;;;9.87;;
14019;SDS011;7085;51.428;6.796;2022-10-13T04:28:56;11.63;;;8.77;;
14019;SDS011;7085;51.428;6.796;2022-10-13T04:31:26;15.13;;;10.18;;
14019;SDS011;7085;51.428;6.796;2022-10-13T04:33:54;13.85;;;9.32;;
14019;SDS011;7085;51.428;6.796;2022-10-13T04:36:22;12.43;;;9.63;;
14019;SDS011;7085;51.428;6.796;2022-10-13T04:38:49;10.85;;;8.93;;
14019;SDS011;7085;51.428;6.796;2022-10-13T04:41:17;13.32;;;9.40;;
14019;SDS011;7085;51.428;6.796;2022-10-13T04:43:46;11.00;;;9.05;;
14019;SDS011;7085;51.428;6.796;2022-10-13T04:46:14;16.55;;;9.75;;
14019;SDS011;7085;51.428;6.796;2022-10-13T04:48:43;13.65;;;8.77;;
14019;SDS011;7085;51.428;6.796;2022-10-13T04:51:12;13.25;;;9.38;;
14019;SDS011;7085;51.428;6.796;2022-10-13T04:53:39;11.13;;;8.88;;
14019;SDS011;7085;51.428;6.796;2022-10-13T04:56:07;18.98;;;9.52;;
14019;SDS011;7085;51.428;6.796;2022-10-13T04:58:34;14.40;;;9.48;;
14019;SDS011;7085;51.428;6.796;2022-10-13T05:01:02;18.77;;;9.95;;
14019;SDS011;7085;51.428;6.796;2022-10-13T05:03:29;16.00;;;9.48;;
14019;SDS011;7085;51.428;6.796;2022-10-13T05:05:57;12.90;;;9.60;;
14019;SDS011;7085;51.428;6.796;2022-10-13T05:08:24;13.43;;;9.57;;
14019;SDS011;7085;51.428;6.796;2022-10-13T05:10:52;12.20;;;9.35;;
14019;SDS011;7085;51.428;6.796;2022-10-13T05:13:19;13.55;;;8.98;;
14019;SDS011;7085;51.428;6.796;2022-10-13T13:10:17;9.68;;;5.40;;
14019;SDS011;7085;51.428;6.796;2022-10-13T13:12:45;9.15;;;5.85;;
14019;SDS011;7085;51.428;6.796;2022-10-13T13:15:16;5.43;;;4.85;;
14019;SDS011;7085;51.428;6.796;2022-10-13T13:17:43;6.80;;;5.30;;
14019;SDS011;7085;51.428;6.796;2022-10-13T13:20:17;9.30;;;4.90;;
14019;SDS011;7085;51.428;6.796;2022-10-13T13:22:44;11.10;;;5.03;;
14019;SDS011;7085;51.428;6.796;2022-10-13T13:25:12;7.07;;;4.75;;
14019;SDS011;7085;51.428;6.796;2022-10-13T13:27:40;5.10;;;4.60;;
14019;SDS011;7085;51.428;6.796;2022-10-13T13:30:08;8.30;;;4.70;;
14019;SDS011;7085;51.428;6.796;2022-10-13T13:32:35;8.93;;;4.80;;
14019;SDS011;7085;51.428;6.796;2022-10-13T13:35:03;9.57;;;4.47;;
14019;SDS011;7085;51.428;6.796;2022-10-13T13:37:30;6.55;;;4.55;;
14019;SDS011;7085;51.428;6.796;2022-10-13T13:39:59;6.00;;;4.22;;
14019;SDS011;7085;51.428;6.796;2022-10-13T13:42:27;6.63;;;4.50;;
14019;SDS011;7085;51.428;6.796;2022-10-13T13:44:55;9.75;;;4.72;;
14019;SDS011;7085;51.428;6.796;2022-10-13T13:47:23;4.88;;;4.13;;
14019;SDS011;7085;51.428;6.796;2022-10-13T13:49:51;5.13;;;4.07;;
14019;SDS011;7085;51.428;6.796;2022-10-13T13:52:19;8.13;;;4.00;;
14019;SDS011;7085;51.428;6.796;2022-10-13T13:54:47;5.72;;;3.72;;
14019;SDS011;7085;51.428;6.796;2022-10-13T13:57:14;6.32;;;4.18;;
14019;SDS011;7085;51.428;6.796;2022-10-13T13:59:42;7.45;;;4.65;;
14019;SDS011;7085;51.428;6.796;2022-10-13T14:02:12;8.90;;;4.82;;
14019;SDS011;7085;51.428;6.796;2022-10-13T14:04:40;8.82;;;4.70;;
14019;SDS011;7085;51.428;6.796;2022-10-13T14:07:07;8.80;;;4.70;;
14019;SDS011;7085;51.428;6.796;2022-10-13T14:09:34;7.32;;;4.95;;
14019;SDS011;7085;51.428;6.796;2022-10-13T14:12:01;6.30;;;4.05;;
14019;SDS011;7085;51.428;6.796;2022-10-13T14:14:28;7.93;;;4.53;;
14019;SDS011;7085;51.428;6.796;2022-10-13T14:16:56;8.52;;;4.65;;
14019;SDS011;7085;51.428;6.796;2022-10-13T14:19:24;12.10;;;5.35;;
14019;SDS011;7085;51.428;6.796;2022-10-13T14:21:51;9.55;;;5.00;;
14019;SDS011;7085;51.428;6.796;2022-10-13T14:24:19;7.38;;;5.13;;
14019;SDS011;7085;51.428;6.796;2022-10-13T14:26:46;9.20;;;5.40;;
14019;SDS011;7085;51.428;6.796;2022-10-13T14:29:13;9.50;;;5.22;;
14019;SDS011;7085;51.428;6.796;2022-10-13T14:31:40;10.95;;;5.30;;
14019;SDS011;7085;51.428;6.796;2022-10-13T14:34:07;7.85;;;4.88;;
14019;SDS011;7085;51.428;6.796;2022-10-13T14:36:35;7.00;;;5.00;;
14019;SDS011;7085;51.428;6.796;2022-10-13T14:39:03;6.47;;;5.50;;
14019;SDS011;7085;51.428;6.796;2022-10-13T14:41:30;9.77;;;5.47;;
14019;SDS011;7085;51.428;6.796;2022-10-13T14:43:57;7.65;;;5.20;;
14019;SDS011;7085;51.428;6.796;2022-10-13T14:46:24;14.15;;;6.07;;
14019;SDS011;7085;51.428;6.796;2022-10-13T14:48:51;9.80;;;5.63;;
14019;SDS011;7085;51.428;6.796;2022-10-13T14:51:18;8.48;;;5.38;;
14019;SDS011;7085;51.428;6.796;2022-10-13T14:53:46;13.88;;;6.38;;
14019;SDS011;7085;51.428;6.796;2022-10-13T14:56:15;8.15;;;6.63;;
14019;SDS011;7085;51.428;6.796;2022-10-13T14:58:42;6.57;;;5.80;;
14019;SDS011;7085;51.428;6.796;2022-10-13T15:01:09;8.07;;;6.57;;
14019;SDS011;7085;51.428;6.796;2022-10-13T15:03:36;10.07;;;6.68;;
14019;SDS011;7085;51.428;6.796;2022-10-13T15:06:03;8.60;;;6.72;;
14019;SDS011;7085;51.428;6.796;2022-10-13T15:08:31;9.80;;;6.82;;
14019;SDS011;7085;51.428;6.796;2022-10-13T15:10:59;10.27;;;6.15;;
14019;SDS011;7085;51.428;6.796;2022-10-13T15:13:26;7.97;;;6.40;;
14019;SDS011;7085;51.428;6.796;2022-10-13T15:15:53;9.88;;;6.88;;
14019;SDS011;7085;51.428;6.796;2022-10-13T15:18:20;14.43;;;6.97;;
14019;SDS011;7085;51.428;6.796;2022-10-13T15:20:48;11.45;;;6.45;;
14019;SDS011;7085;51.428;6.796;2022-10-13T15:23:15;9.88;;;6.40;;
14019;SDS011;7085;51.428;6.796;2022-10-13T15:25:48;9.57;;;5.95;;
14019;SDS011;7085;51.428;6.796;2022-10-13T15:28:16;13.10;;;6.70;;
14019;SDS011;7085;51.428;6.796;2022-10-13T15:30:43;10.38;;;6.82;;
14019;SDS011;7085;51.428;6.796;2022-10-13T15:33:11;10.60;;;7.10;;
14019;SDS011;7085;51.428;6.796;2022-10-13T15:35:38;7.95;;;6.20;;
14019;SDS011;7085;51.428;6.796;2022-10-13T15:38:05;13.68;;;6.25;;
14019;SDS011;7085;51.428;6.796;2022-10-13T15:40:32;10.65;;;6.80;;
14019;SDS011;7085;51.428;6.796;2022-10-13T15:43:00;12.40;;;7.03;;
14019;SDS011;7085;51.428;6.796;2022-10-13T15:45:28;11.15;;;6.25;;
14019;SDS011;7085;51.428;6.796;2022-10-13T15:47:55;12.80;;;7.85;;
14019;SDS011;7085;51.428;6.796;2022-10-13T15:50:23;12.70;;;6.95;;
14019;SDS011;7085;51.428;6.796;2022-10-13T15:52:50;13.07;;;8.43;;
14019;SDS011;7085;51.428;6.796;2022-10-13T15:55:17;12.82;;;7.30;;
14019;SDS011;7085;51.428;6.796;2022-10-13T15:57:44;10.70;;;7.35;;
14019;SDS011;7085;51.428;6.796;2022-10-13T16:00:12;13.02;;;7.93;;
14019;SDS011;7085;51.428;6.796;2022-10-13T16:02:41;11.80;;;7.78;;
14019;SDS011;7085;51.428;6.796;2022-10-13T16:05:08;10.60;;;7.78;;
14019;SDS011;7085;51.428;6.796;2022-10-13T16:07:37;11.98;;;8.35;;
14019;SDS011;7085;51.428;6.796;2022-10-13T16:10:04;14.20;;;9.10;;
14019;SDS011;7085;51.428;6.796;2022-10-13T16:12:31;10.07;;;8.50;;
14019;SDS011;7085;51.428;6.796;2022-10-13T16:14:58;15.27;;;8.45;;
14019;SDS011;7085;51.428;6.796;2022-10-13T16:17:25;14.50;;;9.35;;
14019;SDS011;7085;51.428;6.796;2022-10-13T16:19:54;11.68;;;9.02;;
14019;SDS011;7085;51.428;6.796;2022-10-13T16:22:21;13.68;;;9.68;;
14019;SDS011;7085;51.428;6.796;2022-10-13T16:24:48;9.98;;;8.80;;
14019;SDS011;7085;51.428;6.796;2022-10-13T16:27:15;10.50;;;9.10;;
14019;SDS011;7085;51.428;6.796;2022-10-13T16:29:42;15.55;;;10.50;;
14019;SDS011;7085;51.428;6.796;2022-10-13T16:32:09;12.00;;;9.80;;
14019;SDS011;7085;51.428;6.796;2022-10-13T16:34:36;12.57;;;10.27;;
14019;SDS011;7085;51.428;6.796;2022-10-13T16:37:05;14.60;;;10.90;;
14019;SDS011;7085;51.428;6.796;2022-10-13T16:39:32;14.27;;;10.07;;
14019;SDS011;7085;51.428;6.796;2022-10-13T16:41:59;14.18;;;10.80;;
14019;SDS011;7085;51.428;6.796;2022-10-13T16:44:26;12.65;;;10.80;;
14019;SDS011;7085;51.428;6.796;2022-10-13T16:46:53;14.98;;;11.00;;
14019;SDS011;7085;51.428;6.796;2022-10-13T16:49:21;13.57;;;10.85;;
14019;SDS011;7085;51.428;6.796;2022-10-13T16:51:48;14.85;;;11.50;;
14019;SDS011;7085;51.428;6.796;2022-10-13T16:54:16;18.02;;;11.73;;
14019;SDS011;7085;51.428;6.796;2022-10-13T16:56:43;16.80;;;11.93;;
14019;SDS011;7085;51.428;6.796;2022-10-13T16:59:10;13.93;;;10.45;;
14019;SDS011;7085;51.428;6.796;2022-10-13T17:01:37;12.68;;;9.80;;
14019;SDS011;7085;51.428;6.796;2022-10-13T17:04:05;11.98;;;9.32;;
14019;SDS011;7085;51.428;6.796;2022-10-13T17:06:32;11.95;;;9.55;;
14019;SDS011;7085;51.428;6.796;2022-10-13T17:09:02;12.40;;;9.43;;
14019;SDS011;7085;51.428;6.796;2022-10-13T17:11:32;12.25;;;8.75;;
14019;SDS011;7085;51.428;6.796;2022-10-13T17:13:59;11.48;;;9.25;;
14019;SDS011;7085;51.428;6.796;2022-10-13T17:16:26;10.70;;;8.25;;
14019;SDS011;7085;51.428;6.796;2022-10-13T17:18:54;9.65;;;7.90;;
14019;SDS011;7085;51.428;6.796;2022-10-13T17:21:21;14.05;;;8.57;;
14019;SDS011;7085;51.428;6.796;2022-10-13T17:23:48;10.20;;;8.05;;
14019;SDS011;7085;51.428;6.796;2022-10-13T17:26:16;11.95;;;7.97;;
14019;SDS011;7085;51.428;6.796;2022-10-13T17:28:46;10.60;;;8.38;;
14019;SDS011;7085;51.428;6.796;2022-10-13T17:31:13;9.35;;;7.43;;
14019;SDS011;7085;51.428;6.796;2022-10-13T17:33:41;9.43;;;8.18;;
14019;SDS011;7085;51.428;6.796;2022-10-13T17:36:09;10.77;;;7.90;;
14019;SDS011;7085;51.428;6.796;2022-10-13T17:38:37;11.25;;;8.18;;
14019;SDS011;7085;51.428;6.796;2022-10-13T17:41:05;10.63;;;8.77;;
14019;SDS011;7085;51.428;6.796;2022-10-13T17:43:33;9.98;;;8.75;;
14019;SDS011;7085;51.428;6.796;2022-10-13T17:46:08;14.48;;;10.35;;
14019;SDS011;7085;51.428;6.796;2022-10-13T17:48:35;14.65;;;10.00;;
14019;SDS011;7085;51.428;6.796;2022-10-13T17:51:02;15.32;;;9.93;;
14019;SDS011;7085;51.428;6.796;2022-10-13T17:53:29;10.80;;;9.40;;
14019;SDS011;7085;51.428;6.796;2022-10-13T17:55:59;11.68;;;9.68;;
14019;SDS011;7085;51.428;6.796;2022-10-13T17:58:27;12.25;;;10.07;;
14019;SDS011;7085;51.428;6.796;2022-10-13T18:00:54;12.45;;;10.55;;
14019;SDS011;7085;51.428;6.796;2022-10-13T18:03:22;12.63;;;9.38;;
14019;SDS011;7085;51.428;6.796;2022-10-13T18:05:49;13.38;;;9.25;;
14019;SDS011;7085;51.428;6.796;2022-10-13T18:08:16;12.27;;;10.27;;
14019;SDS011;7085;51.428;6.796;2022-10-13T18:10:44;13.15;;;10.77;;
14019;SDS011;7085;51.428;6.796;2022-10-13T18:13:11;12.85;;;10.25;;
14019;SDS011;7085;51.428;6.796;2022-10-13T18:15:38;15.07;;;10.80;;
14019;SDS011;7085;51.428;6.796;2022-10-13T18:18:06;16.98;;;11.20;;
14019;SDS011;7085;51.428;6.796;2022-10-13T18:20:36;12.77;;;10.02;;
14019;SDS011;7085;51.428;6.796;2022-10-13T18:23:04;12.27;;;10.32;;
14019;SDS011;7085;51.428;6.796;2022-10-13T18:25:34;13.50;;;10.63;;
14019;SDS011;7085;51.428;6.796;2022-10-13T18:28:02;14.98;;;9.95;;
14019;SDS011;7085;51.428;6.796;2022-10-13T18:30:30;15.65;;;10.68;;
14019;SDS011;7085;51.428;6.796;2022-10-13T18:32:58;10.25;;;9.05;;
14019;SDS011;7085;51.428;6.796;2022-10-13T18:35:25;13.55;;;9.38;;
14019;SDS011;7085;51.428;6.796;2022-10-13T18:37:54;12.25;;;9.25;;
14019;SDS011;7085;51.428;6.796;2022-10-13T18:40:21;11.27;;;9.95;;
14019;SDS011;7085;51.428;6.796;2022-10-13T18:42:48;10.95;;;9.60;;
14019;SDS011;7085;51.428;6.796;2022-10-13T18:45:15;12.68;;;9.73;;
14019;SDS011;7085;51.428;6.796;2022-10-13T18:47:42;10.85;;;9.32;;
14019;SDS011;7085;51.428;6.796;2022-10-13T18:50:09;13.45;;;9.48;;
14019;SDS011;7085;51.428;6.796;2022-10-13T18:52:37;11.52;;;9.73;;
14019;SDS011;7085;51.428;6.796;2022-10-13T18:55:06;17.65;;;9.52;;
14019;SDS011;7085;51.428;6.796;2022-10-13T18:57:33;11.77;;;9.82;;
14019;SDS011;7085;51.428;6.796;2022-10-13T19:00:02;13.45;;;9.70;;
14019;SDS011;7085;51.428;6.796;2022-10-13T19:02:30;11.50;;;10.30;;
14019;SDS011;7085;51.428;6.796;2022-10-13T19:04:57;14.50;;;10.20;;
14019;SDS011;7085;51.428;6.796;2022-10-13T19:07:24;12.73;;;10.35;;
14019;SDS011;7085;51.428;6.796;2022-10-13T19:09:52;13.15;;;10.25;;
14019;SDS011;7085;51.428;6.796;2022-10-13T19:12:20;11.02;;;9.93;;
14019;SDS011;7085;51.428;6.796;2022-10-13T19:14:47;14.55;;;10.15;;
14019;SDS011;7085;51.428;6.796;2022-10-13T19:17:14;15.48;;;10.65;;
14019;SDS011;7085;51.428;6.796;2022-10-13T19:19:41;11.77;;;9.98;;
14019;SDS011;7085;51.428;6.796;2022-10-13T19:22:09;13.65;;;10.50;;
14019;SDS011;7085;51.428;6.796;2022-10-13T19:24:36;13.93;;;9.93;;
14019;SDS011;7085;51.428;6.796;2022-10-13T19:27:03;18.27;;;11.50;;
14019;SDS011;7085;51.428;6.796;2022-10-13T19:29:32;19.58;;;13.02;;
14019;SDS011;7085;51.428;6.796;2022-10-13T19:31:59;16.60;;;12.55;;
14019;SDS011;7085;51.428;6.796;2022-10-13T19:34:26;20.17;;;12.93;;
14019;SDS011;7085;51.428;6.796;2022-10-13T19:36:55;15.55;;;12.05;;
14019;SDS011;7085;51.428;6.796;2022-10-13T19:39:23;15.02;;;12.18;;
14019;SDS011;7085;51.428;6.796;2022-10-13T19:41:52;15.07;;;13.05;;
14019;SDS011;7085;51.428;6.796;2022-10-13T19:44:20;16.08;;;12.30;;
14019;SDS011;7085;51.428;6.796;2022-10-13T19:46:49;17.05;;;13.30;;
14019;SDS011;7085;51.428;6.796;2022-10-13T19:49:17;19.40;;;14.23;;
14019;SDS011;7085;51.428;6.796;2022-10-13T19:51:45;30.95;;;18.92;;
14019;SDS011;7085;51.428;6.796;2022-10-13T19:54:13;27.58;;;16.70;;
14019;SDS011;7085;51.428;6.796;2022-10-13T19:56:40;23.95;;;15.48;;
14019;SDS011;7085;51.428;6.796;2022-10-13T19:59:07;20.40;;;13.27;;
14019;SDS011;7085;51.428;6.796;2022-10-13T20:01:34;19.05;;;13.23;;
14019;SDS011;7085;51.428;6.796;2022-10-13T20:04:06;21.35;;;16.05;;
14019;SDS011;7085;51.428;6.796;2022-10-13T20:06:33;23.00;;;17.88;;
14019;SDS011;7085;51.428;6.796;2022-10-13T20:09:01;19.08;;;14.70;;
14019;SDS011;7085;51.428;6.796;2022-10-13T20:11:30;21.83;;;15.82;;
14019;SDS011;7085;51.428;6.796;2022-10-13T20:13:57;18.20;;;14.63;;
14019;SDS011;7085;51.428;6.796;2022-10-13T20:16:24;18.33;;;13.55;;
14019;SDS011;7085;51.428;6.796;2022-10-13T20:18:52;16.40;;;13.07;;
14019;SDS011;7085;51.428;6.796;2022-10-13T20:21:21;18.75;;;13.82;;
14019;SDS011;7085;51.428;6.796;2022-10-13T20:23:49;16.80;;;13.18;;
14019;SDS011;7085;51.428;6.796;2022-10-13T20:26:16;17.25;;;13.60;;
14019;SDS011;7085;51.428;6.796;2022-10-13T20:28:46;14.85;;;13.32;;
14019;SDS011;7085;51.428;6.796;2022-10-13T20:31:14;14.48;;;12.07;;
14019;SDS011;7085;51.428;6.796;2022-10-13T20:33:41;17.08;;;13.02;;
14019;SDS011;7085;51.428;6.796;2022-10-13T20:36:10;17.02;;;12.88;;
14019;SDS011;7085;51.428;6.796;2022-10-13T20:38:39;16.73;;;11.60;;
14019;SDS011;7085;51.428;6.796;2022-10-13T20:41:06;13.88;;;12.18;;
14019;SDS011;7085;51.428;6.796;2022-10-13T20:43:34;16.15;;;11.60;;
14019;SDS011;7085;51.428;6.796;2022-10-13T20:46:02;13.13;;;11.75;;
14019;SDS011;7085;51.428;6.796;2022-10-13T20:48:30;12.90;;;11.50;;
14019;SDS011;7085;51.428;6.796;2022-10-13T20:50:58;14.20;;;10.80;;
14019;SDS011;7085;51.428;6.796;2022-10-13T20:53:25;12.00;;;9.80;;
14019;SDS011;7085;51.428;6.796;2022-10-13T20:55:57;12.73;;;10.05;;
14019;SDS011;7085;51.428;6.796;2022-10-13T20:58:24;11.98;;;9.00;;
14019;SDS011;7085;51.428;6.796;2022-10-13T21:00:52;13.07;;;9.27;;
14019;SDS011;7085;51.428;6.796;2022-10-13T21:03:19;12.55;;;8.70;;
14019;SDS011;7085;51.428;6.796;2022-10-13T21:05:47;10.63;;;8.13;;
14019;SDS011;7085;51.428;6.796;2022-10-13T21:08:14;10.73;;;9.35;;
14019;SDS011;7085;51.428;6.796;2022-10-13T21:10:41;9.43;;;7.68;;
14019;SDS011;7085;51.428;6.796;2022-10-13T21:13:10;11.05;;;8.38;;
14019;SDS011;7085;51.428;6.796;2022-10-13T21:15:38;11.30;;;9.27;;
14019;SDS011;7085;51.428;6.796;2022-10-13T21:18:05;10.73;;;8.88;;
14019;SDS011;7085;51.428;6.796;2022-10-13T21:20:33;10.48;;;8.45;;
14019;SDS011;7085;51.428;6.796;2022-10-13T21:23:00;14.80;;;9.02;;
14019;SDS011;7085;51.428;6.796;2022-10-13T21:25:28;11.65;;;9.32;;
14019;SDS011;7085;51.428;6.796;2022-10-13T21:27:55;11.63;;;8.40;;
14019;SDS011;7085;51.428;6.796;2022-10-13T21:30:24;12.13;;;9.07;;
14019;SDS011;7085;51.428;6.796;2022-10-13T21:32:51;12.73;;;8.98;;
14019;SDS011;7085;51.428;6.796;2022-10-13T21:35:18;9.30;;;8.35;;
14019;SDS011;7085;51.428;6.796;2022-10-13T21:37:45;9.73;;;8.13;;
14019;SDS011;7085;51.428;6.796;2022-10-13T21:40:12;10.55;;;8.77;;
14019;SDS011;7085;51.428;6.796;2022-10-13T21:42:39;11.65;;;7.85;;
14019;SDS011;7085;51.428;6.796;2022-10-13T21:45:07;10.07;;;8.27;;
14019;SDS011;7085;51.428;6.796;2022-10-13T21:47:35;9.70;;;7.22;;
14019;SDS011;7085;51.428;6.796;2022-10-13T21:50:03;11.85;;;7.75;;
14019;SDS011;7085;51.428;6.796;2022-10-13T21:52:33;13.18;;;8.10;;
14019;SDS011;7085;51.428;6.796;2022-10-13T21:55:00;11.18;;;7.38;;
14019;SDS011;7085;51.428;6.796;2022-10-13T21:57:28;9.15;;;7.93;;
14019;SDS011;7085;51.428;6.796;2022-10-13T21:59:55;12.98;;;8.35;;
14019;SDS011;7085;51.428;6.796;2022-10-13T22:02:22;10.25;;;7.75;;
14019;SDS011;7085;51.428;6.796;2022-10-13T22:04:50;9.35;;;8.40;;
14019;SDS011;7085;51.428;6.796;2022-10-13T22:07:18;9.98;;;7.80;;
14019;SDS011;7085;51.428;6.796;2022-10-13T22:09:45;10.88;;;8.43;;
14019;SDS011;7085;51.428;6.796;2022-10-13T22:12:12;8.23;;;7.40;;
14019;SDS011;7085;51.428;6.796;2022-10-13T22:14:39;8.63;;;7.72;;
14019;SDS011;7085;51.428;6.796;2022-10-13T22:17:06;10.23;;;8.60;;
14019;SDS011;7085;51.428;6.796;2022-10-13T22:19:33;9.95;;;7.97;;
14019;SDS011;7085;51.428;6.796;2022-10-13T22:22:01;11.05;;;8.18;;
14019;SDS011;7085;51.428;6.796;2022-10-13T22:24:29;10.02;;;7.72;;
14019;SDS011;7085;51.428;6.796;2022-10-13T22:26:56;9.77;;;8.63;;
14019;SDS011;7085;51.428;6.796;2022-10-13T22:29:23;9.18;;;8.13;;
14019;SDS011;7085;51.428;6.796;2022-10-13T22:31:53;9.80;;;8.38;;
14019;SDS011;7085;51.428;6.796;2022-10-13T22:34:21;9.45;;;8.43;;
14019;SDS011;7085;51.428;6.796;2022-10-13T22:36:48;12.00;;;8.13;;
14019;SDS011;7085;51.428;6.796;2022-10-13T22:39:17;12.57;;;8.45;;
14019;SDS011;7085;51.428;6.796;2022-10-13T22:41:44;9.25;;;8.20;;
14019;SDS011;7085;51.428;6.796;2022-10-13T22:44:11;13.60;;;7.97;;
14019;SDS011;7085;51.428;6.796;2022-10-13T22:46:39;9.80;;;8.20;;
14019;SDS011;7085;51.428;6.796;2022-10-13T22:49:06;11.02;;;8.73;;
14019;SDS011;7085;51.428;6.796;2022-10-13T22:51:34;12.05;;;8.52;;
14019;SDS011;7085;51.428;6.796;2022-10-13T22:54:01;11.90;;;7.93;;
14019;SDS011;7085;51.428;6.796;2022-10-13T22:56:31;11.63;;;7.57;;
14019;SDS011;7085;51.428;6.796;2022-10-13T22:58:59;9.27;;;8.23;;
14019;SDS011;7085;51.428;6.796;2022-10-13T23:01:27;9.85;;;7.72;;
14019;SDS011;7085;51.428;6.796;2022-10-13T23:03:55;9.55;;;8.55;;
14019;SDS011;7085;51.428;6.796;2022-10-13T23:06:23;12.18;;;8.63;;
14019;SDS011;7085;51.428;6.796;2022-10-13T23:08:50;14.40;;;9.30;;
14019;SDS011;7085;51.428;6.796;2022-10-13T23:11:17;11.55;;;8.45;;
14019;SDS011;7085;51.428;6.796;2022-10-13T23:13:46;10.55;;;9.50;;
14019;SDS011;7085;51.428;6.796;2022-10-13T23:16:14;12.02;;;9.18;;
14019;SDS011;7085;51.428;6.796;2022-10-13T23:18:41;12.38;;;9.18;;
14019;SDS011;7085;51.428;6.796;2022-10-13T23:21:09;14.77;;;9.23;;
14019;SDS011;7085;51.428;6.796;2022-10-13T23:23:37;14.90;;;9.30;;
14019;SDS011;7085;51.428;6.796;2022-10-13T23:26:05;16.20;;;10.63;;
14019;SDS011;7085;51.428;6.796;2022-10-13T23:28:32;11.55;;;10.20;;
14019;SDS011;7085;51.428;6.796;2022-10-13T23:31:01;15.95;;;10.20;;
14019;SDS011;7085;51.428;6.796;2022-10-13T23:33:29;14.90;;;10.07;;
14019;SDS011;7085;51.428;6.796;2022-10-13T23:35:57;14.30;;;10.32;;
14019;SDS011;7085;51.428;6.796;2022-10-13T23:38:24;13.32;;;10.07;;
14019;SDS011;7085;51.428;6.796;2022-10-13T23:40:51;11.55;;;9.70;;
14019;SDS011;7085;51.428;6.796;2022-10-13T23:43:18;12.70;;;9.68;;
14019;SDS011;7085;51.428;6.796;2022-10-13T23:45:45;15.63;;;11.18;;
14019;SDS011;7085;51.428;6.796;2022-10-13T23:48:14;16.77;;;10.48;;
14019;SDS011;7085;51.428;6.796;2022-10-13T23:50:41;12.88;;;10.07;;
14019;SDS011;7085;51.428;6.796;2022-10-13T23:53:08;14.88;;;9.93;;
14019;SDS011;7085;51.428;6.796;2022-10-13T23:55:36;12.40;;;10.25;;
14019;SDS011;7085;51.428;6.796;2022-10-13T23:58:03;11.77;;;9.90;;
